sensor_id;sensor_type;location;lat;lon;timestamp;pressure;altitude;pressure_sealevel;temperature;humidity
47220;BME280;32961;51.936;4.788;2023-04-08T00:01:22;102256.28;;;8.61;100.00
47220;BME280;32961;51.936;4.788;2023-04-08T00:03:49;102266.25;;;8.60;100.00
47220;BME280;32961;51.936;4.788;2023-04-08T00:06:18;102257.34;;;8.58;100.00
47220;BME280;32961;51.936;4.788;2023-04-08T00:08:46;102262.69;;;8.60;100.00
47220;BME280;32961;51.936;4.788;2023-04-08T00:11:15;102265.38;;;8.60;100.00
47220;BME280;32961;51.936;4.788;2023-04-08T00:13:43;102263.53;;;8.60;100.00
47220;BME280;32961;51.936;4.788;2023-04-08T00:16:11;102254.72;;;8.57;100.00
47220;BME280;32961;51.936;4.788;2023-04-08T00:18:39;102262.69;;;8.60;100.00
47220;BME280;32961;51.936;4.788;2023-04-08T00:21:08;102263.53;;;8.60;100.00
47220;BME280;32961;51.936;4.788;2023-04-08T00:23:36;102261.09;;;8.56;100.00
47220;BME280;32961;51.936;4.788;2023-04-08T00:26:03;102262.69;;;8.60;100.00
47220;BME280;32961;51.936;4.788;2023-04-08T00:28:33;102267.88;;;8.63;100.00
47220;BME280;32961;51.936;4.788;2023-04-08T00:31:00;102264.44;;;8.61;100.00
47220;BME280;32961;51.936;4.788;2023-04-08T00:33:28;102266.25;;;8.60;100.00
47220;BME280;32961;51.936;4.788;2023-04-08T00:35:56;102265.38;;;8.60;100.00
47220;BME280;32961;51.936;4.788;2023-04-08T00:38:24;102269.16;;;8.57;100.00
47220;BME280;32961;51.936;4.788;2023-04-08T00:40:52;102261.09;;;8.56;100.00
47220;BME280;32961;51.936;4.788;2023-04-08T00:43:19;102264.81;;;8.55;100.00
47220;BME280;32961;51.936;4.788;2023-04-08T00:45:49;102272.84;;;8.56;100.00
47220;BME280;32961;51.936;4.788;2023-04-08T00:48:16;102272.16;;;8.53;100.00
47220;BME280;32961;51.936;4.788;2023-04-08T00:50:44;102278.34;;;8.55;100.00
47220;BME280;32961;51.936;4.788;2023-04-08T00:53:14;102271.09;;;8.55;100.00
47220;BME280;32961;51.936;4.788;2023-04-08T00:55:43;102271.78;;;8.59;100.00
47220;BME280;32961;51.936;4.788;2023-04-08T00:58:12;102273.50;;;8.60;100.00
47220;BME280;32961;51.936;4.788;2023-04-08T01:00:44;102272.63;;;8.59;100.00
47220;BME280;32961;51.936;4.788;2023-04-08T01:03:17;102271.78;;;8.59;100.00
47220;BME280;32961;51.936;4.788;2023-04-08T01:05:52;102267.41;;;8.56;100.00
47220;BME280;32961;51.936;4.788;2023-04-08T01:08:24;102266.53;;;8.56;100.00
47220;BME280;32961;51.936;4.788;2023-04-08T01:10:56;102271.94;;;8.56;100.00
47220;BME280;32961;51.936;4.788;2023-04-08T01:13:29;102271.09;;;8.55;100.00
47220;BME280;32961;51.936;4.788;2023-04-08T01:15:58;102273.00;;;8.53;100.00
47220;BME280;32961;51.936;4.788;2023-04-08T01:18:28;102290.16;;;8.54;100.00
47220;BME280;32961;51.936;4.788;2023-04-08T01:20:57;102285.81;;;8.51;100.00
47220;BME280;32961;51.936;4.788;2023-04-08T01:23:32;102287.53;;;8.52;100.00
47220;BME280;32961;51.936;4.788;2023-04-08T01:26:05;102283.16;;;8.49;100.00
47220;BME280;32961;51.936;4.788;2023-04-08T01:28:33;102277.97;;;8.46;100.00
47220;BME280;32961;51.936;4.788;2023-04-08T01:31:02;102288.59;;;8.49;100.00
47220;BME280;32961;51.936;4.788;2023-04-08T01:33:30;102284.13;;;8.48;100.00
47220;BME280;32961;51.936;4.788;2023-04-08T01:35:59;102282.44;;;8.46;100.00
47220;BME280;32961;51.936;4.788;2023-04-08T01:38:29;102280.81;;;8.43;100.00
47220;BME280;32961;51.936;4.788;2023-04-08T01:40:58;102283.28;;;8.48;100.00
47220;BME280;32961;51.936;4.788;2023-04-08T01:43:28;102281.53;;;8.47;100.00
47220;BME280;32961;51.936;4.788;2023-04-08T01:45:58;102283.16;;;8.49;100.00
47220;BME280;32961;51.936;4.788;2023-04-08T01:48:27;102282.22;;;8.50;100.00
47220;BME280;32961;51.936;4.788;2023-04-08T01:50:55;102291.41;;;8.48;100.00
47220;BME280;32961;51.936;4.788;2023-04-08T01:53:23;102290.34;;;8.50;100.00
47220;BME280;32961;51.936;4.788;2023-04-08T01:56:06;102285.13;;;8.47;100.00
47220;BME280;32961;51.936;4.788;2023-04-08T01:58:40;102285.13;;;8.47;100.00
47220;BME280;32961;51.936;4.788;2023-04-08T02:01:10;102290.69;;;8.44;100.00
47220;BME280;32961;51.936;4.788;2023-04-08T02:03:41;102288.19;;;8.41;100.00
47220;BME280;32961;51.936;4.788;2023-04-08T02:06:10;102288.94;;;8.43;100.00
47220;BME280;32961;51.936;4.788;2023-04-08T02:08:37;102295.41;;;8.41;100.00
47220;BME280;32961;51.936;4.788;2023-04-08T02:11:05;102293.66;;;8.40;100.00
47220;BME280;32961;51.936;4.788;2023-04-08T02:13:33;102286.50;;;8.39;100.00
47220;BME280;32961;51.936;4.788;2023-04-08T02:16:08;102291.75;;;8.42;100.00
47220;BME280;32961;51.936;4.788;2023-04-08T02:18:38;102287.19;;;8.42;100.00
47220;BME280;32961;51.936;4.788;2023-04-08T02:21:12;102295.63;;;8.38;100.00
47220;BME280;32961;51.936;4.788;2023-04-08T02:23:41;102299.19;;;8.38;100.00
47220;BME280;32961;51.936;4.788;2023-04-08T02:26:13;102293.66;;;8.40;100.00
47220;BME280;32961;51.936;4.788;2023-04-08T02:28:42;102293.66;;;8.40;100.00
47220;BME280;32961;51.936;4.788;2023-04-08T02:31:12;102292.81;;;8.39;100.00
47220;BME280;32961;51.936;4.788;2023-04-08T02:33:42;102306.72;;;8.33;100.00
47220;BME280;32961;51.936;4.788;2023-04-08T02:36:10;102296.00;;;8.31;100.00
47220;BME280;32961;51.936;4.788;2023-04-08T02:38:38;102303.34;;;8.29;100.00
47220;BME280;32961;51.936;4.788;2023-04-08T02:41:06;102297.03;;;8.29;100.00
47220;BME280;32961;51.936;4.788;2023-04-08T02:43:34;102302.06;;;8.21;100.00
47220;BME280;32961;51.936;4.788;2023-04-08T02:46:02;102299.38;;;8.21;100.00
47220;BME280;32961;51.936;4.788;2023-04-08T02:48:31;102300.22;;;8.21;100.00
47220;BME280;32961;51.936;4.788;2023-04-08T02:50:59;102299.25;;;8.22;100.00
47220;BME280;32961;51.936;4.788;2023-04-08T02:53:27;102302.13;;;8.19;100.00
47220;BME280;32961;51.936;4.788;2023-04-08T02:55:55;102310.25;;;8.19;100.00
47220;BME280;32961;51.936;4.788;2023-04-08T02:58:23;102306.00;;;8.15;100.00
47220;BME280;32961;51.936;4.788;2023-04-08T03:00:51;102312.47;;;8.12;100.00
47220;BME280;32961;51.936;4.788;2023-04-08T03:03:18;102303.56;;;8.10;100.00
47220;BME280;32961;51.936;4.788;2023-04-08T03:05:55;102310.72;;;8.11;100.00
47220;BME280;32961;51.936;4.788;2023-04-08T03:08:23;102314.50;;;8.09;100.00
47220;BME280;32961;51.936;4.788;2023-04-08T03:10:51;102311.63;;;8.12;100.00
47220;BME280;32961;51.936;4.788;2023-04-08T03:13:19;102318.38;;;8.05;100.00
47220;BME280;32961;51.936;4.788;2023-04-08T03:15:46;102316.03;;;7.98;100.00
47220;BME280;32961;51.936;4.788;2023-04-08T03:18:14;102320.44;;;7.99;100.00
47220;BME280;32961;51.936;4.788;2023-04-08T03:20:43;102317.41;;;7.90;100.00
47220;BME280;32961;51.936;4.788;2023-04-08T03:23:12;102323.50;;;7.79;100.00
47220;BME280;32961;51.936;4.788;2023-04-08T03:25:40;102319.28;;;7.73;100.00
47220;BME280;32961;51.936;4.788;2023-04-08T03:28:07;102321.22;;;7.71;100.00
47220;BME280;32961;51.936;4.788;2023-04-08T03:30:35;102326.22;;;7.63;100.00
47220;BME280;32961;51.936;4.788;2023-04-08T03:33:03;102325.25;;;7.48;100.00
47220;BME280;32961;51.936;4.788;2023-04-08T03:35:33;102324.66;;;7.43;100.00
47220;BME280;32961;51.936;4.788;2023-04-08T03:38:01;102327.19;;;7.46;100.00
47220;BME280;32961;51.936;4.788;2023-04-08T03:40:30;102327.09;;;7.47;100.00
47220;BME280;32961;51.936;4.788;2023-04-08T03:42:58;102330.16;;;7.41;100.00
47220;BME280;32961;51.936;4.788;2023-04-08T03:45:26;102330.94;;;7.27;100.00
47220;BME280;32961;51.936;4.788;2023-04-08T03:47:54;102328.91;;;7.15;100.00
47220;BME280;32961;51.936;4.788;2023-04-08T03:50:22;102337.09;;;7.13;100.00
47220;BME280;32961;51.936;4.788;2023-04-08T03:52:49;102337.00;;;7.15;100.00
47220;BME280;32961;51.936;4.788;2023-04-08T03:55:17;102342.06;;;7.21;100.00
47220;BME280;32961;51.936;4.788;2023-04-08T03:57:46;102340.41;;;7.18;100.00
47220;BME280;32961;51.936;4.788;2023-04-08T04:00:14;102345.22;;;7.13;100.00
47220;BME280;32961;51.936;4.788;2023-04-08T04:02:42;102350.97;;;7.07;100.00
47220;BME280;32961;51.936;4.788;2023-04-08T04:05:10;102348.59;;;7.01;100.00
47220;BME280;32961;51.936;4.788;2023-04-08T04:07:38;102349.50;;;6.84;100.00
47220;BME280;32961;51.936;4.788;2023-04-08T04:10:07;102352.31;;;6.82;100.00
47220;BME280;32961;51.936;4.788;2023-04-08T04:12:35;102355.44;;;6.74;100.00
47220;BME280;32961;51.936;4.788;2023-04-08T04:15:06;102353.59;;;6.75;100.00
47220;BME280;32961;51.936;4.788;2023-04-08T04:17:33;102352.63;;;6.76;100.00
47220;BME280;32961;51.936;4.788;2023-04-08T04:20:03;102357.84;;;6.79;100.00
47220;BME280;32961;51.936;4.788;2023-04-08T04:22:30;102369.47;;;6.81;100.00
47220;BME280;32961;51.936;4.788;2023-04-08T04:24:58;102364.94;;;6.82;100.00
47220;BME280;32961;51.936;4.788;2023-04-08T04:27:26;102359.47;;;6.83;100.00
47220;BME280;32961;51.936;4.788;2023-04-08T04:29:54;102366.28;;;6.73;100.00
47220;BME280;32961;51.936;4.788;2023-04-08T04:32:23;102369.88;;;6.73;100.00
47220;BME280;32961;51.936;4.788;2023-04-08T04:34:51;102370.03;;;6.70;100.00
47220;BME280;32961;51.936;4.788;2023-04-08T04:37:19;102375.53;;;6.69;100.00
47220;BME280;32961;51.936;4.788;2023-04-08T04:39:47;102375.75;;;6.64;100.00
47220;BME280;32961;51.936;4.788;2023-04-08T04:42:15;102371.25;;;6.65;100.00
47220;BME280;32961;51.936;4.788;2023-04-08T04:44:42;102375.28;;;6.56;100.00
47220;BME280;32961;51.936;4.788;2023-04-08T04:47:10;102382.75;;;6.51;100.00
47220;BME280;32961;51.936;4.788;2023-04-08T04:49:39;102394.78;;;6.45;100.00
47220;BME280;32961;51.936;4.788;2023-04-08T04:52:07;102389.13;;;6.32;100.00
47220;BME280;32961;51.936;4.788;2023-04-08T04:54:35;102392.00;;;6.29;100.00
47220;BME280;32961;51.936;4.788;2023-04-08T04:57:03;102392.72;;;6.33;100.00
47220;BME280;32961;51.936;4.788;2023-04-08T04:59:31;102399.13;;;6.30;100.00
47220;BME280;32961;51.936;4.788;2023-04-08T05:01:58;102396.50;;;6.29;100.00
47220;BME280;32961;51.936;4.788;2023-04-08T05:04:26;102398.88;;;6.17;100.00
47220;BME280;32961;51.936;4.788;2023-04-08T05:06:57;102392.44;;;6.20;100.00
47220;BME280;32961;51.936;4.788;2023-04-08T05:09:25;102404.06;;;6.22;100.00
47220;BME280;32961;51.936;4.788;2023-04-08T05:11:53;102407.78;;;6.19;100.00
47220;BME280;32961;51.936;4.788;2023-04-08T05:14:21;102405.00;;;6.03;100.00
47220;BME280;32961;51.936;4.788;2023-04-08T05:16:49;102404.81;;;6.06;100.00
47220;BME280;32961;51.936;4.788;2023-04-08T05:19:16;102408.16;;;6.12;100.00
47220;BME280;32961;51.936;4.788;2023-04-08T05:21:44;102406.03;;;6.18;100.00
47220;BME280;32961;51.936;4.788;2023-04-08T05:24:13;102409.69;;;6.17;100.00
47220;BME280;32961;51.936;4.788;2023-04-08T05:26:41;102410.50;;;6.19;100.00
47220;BME280;32961;51.936;4.788;2023-04-08T05:29:09;102413.59;;;6.29;100.00
47220;BME280;32961;51.936;4.788;2023-04-08T05:31:37;102418.19;;;6.27;100.00
47220;BME280;32961;51.936;4.788;2023-04-08T05:34:05;102419.66;;;6.15;100.00
47220;BME280;32961;51.936;4.788;2023-04-08T05:36:32;102417.78;;;6.17;100.00
47220;BME280;32961;51.936;4.788;2023-04-08T05:39:00;102410.63;;;6.16;100.00
47220;BME280;32961;51.936;4.788;2023-04-08T05:41:30;102426.81;;;6.16;100.00
47220;BME280;32961;51.936;4.788;2023-04-08T05:43:58;102431.34;;;6.16;100.00
47220;BME280;32961;51.936;4.788;2023-04-08T05:46:25;102430.97;;;6.23;100.00
47220;BME280;32961;51.936;4.788;2023-04-08T05:48:53;102428.91;;;6.29;100.00
47220;BME280;32961;51.936;4.788;2023-04-08T05:51:21;102435.72;;;6.18;100.00
47220;BME280;32961;51.936;4.788;2023-04-08T05:53:49;102432.72;;;6.24;100.00
47220;BME280;32961;51.936;4.788;2023-04-08T05:56:16;102441.13;;;6.18;100.00
47220;BME280;32961;51.936;4.788;2023-04-08T05:58:46;102443.31;;;6.10;100.00
47220;BME280;32961;51.936;4.788;2023-04-08T06:01:14;102442.81;;;6.02;100.00
47220;BME280;32961;51.936;4.788;2023-04-08T06:03:42;102437.94;;;6.10;100.00
47220;BME280;32961;51.936;4.788;2023-04-08T06:06:10;102452.38;;;6.09;100.00
47220;BME280;32961;51.936;4.788;2023-04-08T06:08:38;102455.97;;;6.09;100.00
47220;BME280;32961;51.936;4.788;2023-04-08T06:11:06;102455.78;;;6.13;100.00
47220;BME280;32961;51.936;4.788;2023-04-08T06:13:34;102457.38;;;6.17;100.00
47220;BME280;32961;51.936;4.788;2023-04-08T06:16:10;102455.78;;;6.13;100.00
47220;BME280;32961;51.936;4.788;2023-04-08T06:18:39;102450.09;;;6.19;100.00
47220;BME280;32961;51.936;4.788;2023-04-08T06:21:07;102457.00;;;6.24;100.00
47220;BME280;32961;51.936;4.788;2023-04-08T06:23:35;102459.53;;;6.28;100.00
47220;BME280;32961;51.936;4.788;2023-04-08T06:26:02;102462.91;;;6.33;100.00
47220;BME280;32961;51.936;4.788;2023-04-08T06:28:31;102466.88;;;6.25;100.00
47220;BME280;32961;51.936;4.788;2023-04-08T06:30:59;102473.00;;;6.29;100.00
47220;BME280;32961;51.936;4.788;2023-04-08T06:33:28;102473.53;;;6.36;100.00
47220;BME280;32961;51.936;4.788;2023-04-08T06:36:02;102486.22;;;6.34;100.00
47220;BME280;32961;51.936;4.788;2023-04-08T06:38:34;102492.25;;;6.21;100.00
47220;BME280;32961;51.936;4.788;2023-04-08T06:41:02;102490.25;;;6.25;100.00
47220;BME280;32961;51.936;4.788;2023-04-08T06:43:30;102487.34;;;6.30;100.00
47220;BME280;32961;51.936;4.788;2023-04-08T06:45:58;102493.91;;;6.24;100.00
47220;BME280;32961;51.936;4.788;2023-04-08T06:48:26;102496.38;;;6.29;100.00
47220;BME280;32961;51.936;4.788;2023-04-08T06:50:58;102495.00;;;6.39;100.00
47220;BME280;32961;51.936;4.788;2023-04-08T06:53:27;102506.56;;;6.41;100.00
47220;BME280;32961;51.936;4.788;2023-04-08T06:55:56;102501.13;;;6.42;100.00
47220;BME280;32961;51.936;4.788;2023-04-08T06:58:24;102507.22;;;6.46;100.00
47220;BME280;32961;51.936;4.788;2023-04-08T07:00:52;102510.31;;;6.56;100.00
47220;BME280;32961;51.936;4.788;2023-04-08T07:03:21;102511.94;;;6.60;100.00
47220;BME280;32961;51.936;4.788;2023-04-08T07:05:49;102513.44;;;6.66;100.00
47220;BME280;32961;51.936;4.788;2023-04-08T07:08:18;102513.94;;;6.74;100.00
47220;BME280;32961;51.936;4.788;2023-04-08T07:10:46;102515.69;;;6.75;100.00
47220;BME280;32961;51.936;4.788;2023-04-08T07:13:14;102517.25;;;6.79;100.00
47220;BME280;32961;51.936;4.788;2023-04-08T07:15:42;102509.09;;;6.81;100.00
47220;BME280;32961;51.936;4.788;2023-04-08T07:18:10;102520.63;;;6.84;100.00
47220;BME280;32961;51.936;4.788;2023-04-08T07:20:38;102524.19;;;6.85;100.00
47220;BME280;32961;51.936;4.788;2023-04-08T07:23:08;102521.56;;;6.83;100.00
47220;BME280;32961;51.936;4.788;2023-04-08T07:25:37;102528.72;;;6.84;100.00
47220;BME280;32961;51.936;4.788;2023-04-08T07:28:05;102532.38;;;6.83;100.00
47220;BME280;32961;51.936;4.788;2023-04-08T07:30:33;102536.44;;;6.92;100.00
47220;BME280;32961;51.936;4.788;2023-04-08T07:33:00;102540.47;;;7.01;100.00
47220;BME280;32961;51.936;4.788;2023-04-08T07:35:28;102532.47;;;6.99;100.00
47220;BME280;32961;51.936;4.788;2023-04-08T07:37:57;102540.56;;;6.99;100.00
47220;BME280;32961;51.936;4.788;2023-04-08T07:40:25;102541.19;;;7.04;100.00
47220;BME280;32961;51.936;4.788;2023-04-08T07:42:54;102541.19;;;7.04;100.00
47220;BME280;32961;51.936;4.788;2023-04-08T07:45:22;102542.63;;;7.12;100.00
47220;BME280;32961;51.936;4.788;2023-04-08T07:47:50;102537.75;;;7.18;100.00
47220;BME280;32961;51.936;4.788;2023-04-08T07:50:18;102542.06;;;7.22;100.00
47220;BME280;32961;51.936;4.788;2023-04-08T07:52:46;102547.41;;;7.24;100.00
47220;BME280;32961;51.936;4.788;2023-04-08T07:55:13;102551.66;;;7.28;100.00
47220;BME280;32961;51.936;4.788;2023-04-08T07:57:41;102547.94;;;7.31;100.00
47220;BME280;32961;51.936;4.788;2023-04-08T08:00:12;102551.66;;;7.28;100.00
47220;BME280;32961;51.936;4.788;2023-04-08T08:02:46;102548.91;;;7.30;100.00
47220;BME280;32961;51.936;4.788;2023-04-08T08:05:14;102553.34;;;7.31;100.00
47220;BME280;32961;51.936;4.788;2023-04-08T08:07:42;102554.00;;;7.36;100.00
47220;BME280;32961;51.936;4.788;2023-04-08T08:10:10;102556.44;;;7.41;100.00
47220;BME280;32961;51.936;4.788;2023-04-08T08:12:38;102562.25;;;7.33;100.00
47220;BME280;32961;51.936;4.788;2023-04-08T08:15:07;102566.63;;;7.35;100.00
47220;BME280;32961;51.936;4.788;2023-04-08T08:17:36;102565.75;;;7.35;100.00
47220;BME280;32961;51.936;4.788;2023-04-08T08:20:05;102561.84;;;7.41;100.00
47220;BME280;32961;51.936;4.788;2023-04-08T08:22:33;102569.56;;;7.48;100.00
47220;BME280;32961;51.936;4.788;2023-04-08T08:25:16;102563.97;;;7.51;100.00
47220;BME280;32961;51.936;4.788;2023-04-08T08:27:45;102570.28;;;7.52;100.00
47220;BME280;32961;51.936;4.788;2023-04-08T08:30:13;102570.81;;;7.59;100.00
47220;BME280;32961;51.936;4.788;2023-04-08T08:32:42;102579.72;;;7.61;100.00
47220;BME280;32961;51.936;4.788;2023-04-08T08:35:10;102574.22;;;7.62;100.00
47220;BME280;32961;51.936;4.788;2023-04-08T08:37:38;102586.25;;;7.57;100.00
47220;BME280;32961;51.936;4.788;2023-04-08T08:40:07;102579.44;;;7.49;100.00
47220;BME280;32961;51.936;4.788;2023-04-08T08:42:35;102578.44;;;7.68;100.00
47220;BME280;32961;51.936;4.788;2023-04-08T08:45:04;102581.28;;;7.65;100.00
47220;BME280;32961;51.936;4.788;2023-04-08T08:47:32;102572.06;;;7.69;100.00
47220;BME280;32961;51.936;4.788;2023-04-08T08:50:01;102575.72;;;7.68;100.00
47220;BME280;32961;51.936;4.788;2023-04-08T08:52:29;102578.81;;;7.78;100.00
47220;BME280;32961;51.936;4.788;2023-04-08T08:54:58;102585.69;;;7.83;100.00
47220;BME280;32961;51.936;4.788;2023-04-08T08:57:26;102584.75;;;7.84;100.00
47220;BME280;32961;51.936;4.788;2023-04-08T08:59:54;102592.47;;;7.92;100.00
47220;BME280;32961;51.936;4.788;2023-04-08T09:02:23;102590.47;;;7.96;100.00
47220;BME280;32961;51.936;4.788;2023-04-08T09:04:57;102598.25;;;8.02;100.00
47220;BME280;32961;51.936;4.788;2023-04-08T09:07:28;102601.31;;;8.12;100.00
47220;BME280;32961;51.936;4.788;2023-04-08T09:09:57;102597.38;;;8.17;100.00
47220;BME280;32961;51.936;4.788;2023-04-08T09:12:26;102599.47;;;8.12;100.00
47220;BME280;32961;51.936;4.788;2023-04-08T09:15:05;102599.31;;;8.15;100.00
47220;BME280;32961;51.936;4.788;2023-04-08T09:17:35;102592.66;;;8.21;100.00
47220;BME280;32961;51.936;4.788;2023-04-08T09:20:04;102597.22;;;8.21;100.00
47220;BME280;32961;51.936;4.788;2023-04-08T09:25:33;102598.69;;;8.42;100.00
47220;BME280;32961;51.936;4.788;2023-04-08T09:28:01;102596.56;;;8.49;100.00
47220;BME280;32961;51.936;4.788;2023-04-08T09:30:31;102603.72;;;8.50;100.00
47220;BME280;32961;51.936;4.788;2023-04-08T09:32:58;102601.16;;;8.63;100.00
47220;BME280;32961;51.936;4.788;2023-04-08T09:35:27;102594.19;;;8.59;100.00
47220;BME280;32961;51.936;4.788;2023-04-08T09:37:54;102596.53;;;8.65;100.00
47220;BME280;32961;51.936;4.788;2023-04-08T09:40:23;102598.09;;;8.85;100.00
47220;BME280;32961;51.936;4.788;2023-04-08T09:42:55;102601.88;;;9.13;100.00
47220;BME280;32961;51.936;4.788;2023-04-08T09:45:24;102604.16;;;9.35;100.00
47220;BME280;32961;51.936;4.788;2023-04-08T09:47:56;102609.41;;;9.53;100.00
47220;BME280;32961;51.936;4.788;2023-04-08T09:50:26;102612.84;;;9.71;99.78
47220;BME280;32961;51.936;4.788;2023-04-08T09:53:00;102612.97;;;9.98;100.00
47220;BME280;32961;51.936;4.788;2023-04-08T09:55:34;102606.03;;;10.21;98.80
47220;BME280;32961;51.936;4.788;2023-04-08T09:58:10;102603.03;;;10.40;99.45
47220;BME280;32961;51.936;4.788;2023-04-08T10:00:46;102597.84;;;10.65;95.75
47220;BME280;32961;51.936;4.788;2023-04-08T10:03:25;102596.78;;;10.67;91.73
47220;BME280;32961;51.936;4.788;2023-04-08T10:05:55;102596.06;;;10.78;93.38
47220;BME280;32961;51.936;4.788;2023-04-08T10:08:24;102586.22;;;11.03;93.82
47220;BME280;32961;51.936;4.788;2023-04-08T10:10:53;102589.78;;;11.31;93.03
47220;BME280;32961;51.936;4.788;2023-04-08T10:13:24;102588.69;;;11.46;89.77
47220;BME280;32961;51.936;4.788;2023-04-08T10:16:17;102584.56;;;11.79;90.53
47220;BME280;32961;51.936;4.788;2023-04-08T10:18:45;102591.53;;;12.09;88.79
47220;BME280;32961;51.936;4.788;2023-04-08T10:21:30;102585.13;;;12.34;86.61
47220;BME280;32961;51.936;4.788;2023-04-08T10:23:59;102582.91;;;12.52;86.55
47220;BME280;32961;51.936;4.788;2023-04-08T10:26:37;102582.59;;;12.81;85.07
47220;BME280;32961;51.936;4.788;2023-04-08T10:32:27;102576.03;;;12.84;80.16
47220;BME280;32961;51.936;4.788;2023-04-08T10:34:55;102577.97;;;13.06;82.13
47220;BME280;32961;51.936;4.788;2023-04-08T10:37:23;102582.28;;;12.97;76.11
47220;BME280;32961;51.936;4.788;2023-04-08T10:39:53;102581.25;;;12.98;78.76
47220;BME280;32961;51.936;4.788;2023-04-08T10:42:26;102572.88;;;13.13;75.81
47220;BME280;32961;51.936;4.788;2023-04-08T10:44:59;102576.84;;;13.44;79.84
47220;BME280;32961;51.936;4.788;2023-04-08T10:47:28;102584.00;;;13.81;76.54
47220;BME280;32961;51.936;4.788;2023-04-08T10:49:56;102572.56;;;13.99;70.03
47220;BME280;32961;51.936;4.788;2023-04-08T10:52:24;102575.28;;;13.87;63.53
47220;BME280;32961;51.936;4.788;2023-04-08T10:54:53;102572.78;;;13.84;61.34
47220;BME280;32961;51.936;4.788;2023-04-08T10:57:24;102576.41;;;14.07;64.71
47220;BME280;32961;51.936;4.788;2023-04-08T10:59:52;102581.59;;;14.33;61.92
47220;BME280;32961;51.936;4.788;2023-04-08T11:02:20;102570.25;;;14.49;63.12
47220;BME280;32961;51.936;4.788;2023-04-08T11:04:52;102574.44;;;14.65;61.03
47220;BME280;32961;51.936;4.788;2023-04-08T11:07:21;102575.50;;;14.85;62.43
47220;BME280;32961;51.936;4.788;2023-04-08T11:09:49;102576.88;;;14.90;57.79
47220;BME280;32961;51.936;4.788;2023-04-08T11:12:17;102566.06;;;14.89;58.69
47220;BME280;32961;51.936;4.788;2023-04-08T11:14:45;102568.63;;;15.23;60.51
47220;BME280;32961;51.936;4.788;2023-04-08T11:17:15;102572.03;;;15.36;58.92
47220;BME280;32961;51.936;4.788;2023-04-08T11:19:43;102565.13;;;15.42;56.39
47220;BME280;32961;51.936;4.788;2023-04-08T11:22:12;102565.47;;;15.49;55.66
47220;BME280;32961;51.936;4.788;2023-04-08T11:24:40;102559.34;;;15.35;55.20
47220;BME280;32961;51.936;4.788;2023-04-08T11:27:08;102562.19;;;15.55;56.24
47220;BME280;32961;51.936;4.788;2023-04-08T11:29:36;102561.16;;;15.46;54.05
47220;BME280;32961;51.936;4.788;2023-04-08T11:32:05;102546.84;;;15.43;57.28
47220;BME280;32961;51.936;4.788;2023-04-08T11:34:38;102554.75;;;15.67;57.62
47220;BME280;32961;51.936;4.788;2023-04-08T11:37:07;102554.94;;;16.06;57.08
47220;BME280;32961;51.936;4.788;2023-04-08T11:39:41;102553.25;;;16.25;54.96
47220;BME280;32961;51.936;4.788;2023-04-08T11:42:25;102556.63;;;16.38;53.52
47220;BME280;32961;51.936;4.788;2023-04-08T11:44:53;102555.75;;;16.38;52.83
47220;BME280;32961;51.936;4.788;2023-04-08T11:47:21;102552.78;;;16.60;54.33
47220;BME280;32961;51.936;4.788;2023-04-08T11:49:49;102558.13;;;16.81;53.07
47220;BME280;32961;51.936;4.788;2023-04-08T11:52:17;102548.91;;;17.02;52.15
47220;BME280;32961;51.936;4.788;2023-04-08T11:54:47;102555.28;;;16.93;46.23
47220;BME280;32961;51.936;4.788;2023-04-08T11:57:27;102549.16;;;16.50;45.46
47220;BME280;32961;51.936;4.788;2023-04-08T11:59:55;102546.41;;;16.60;49.16
47220;BME280;32961;51.936;4.788;2023-04-08T12:02:22;102554.38;;;16.73;49.54
47220;BME280;32961;51.936;4.788;2023-04-08T12:04:50;102534.44;;;16.80;47.84
47220;BME280;32961;51.936;4.788;2023-04-08T12:07:18;102545.00;;;16.85;47.10
47220;BME280;32961;51.936;4.788;2023-04-08T12:09:48;102545.00;;;16.75;46.46
47220;BME280;32961;51.936;4.788;2023-04-08T12:12:16;102540.13;;;16.18;43.59
47220;BME280;32961;51.936;4.788;2023-04-08T12:14:44;102541.38;;;16.04;46.01
47220;BME280;32961;51.936;4.788;2023-04-08T12:17:11;102533.56;;;16.00;46.82
47220;BME280;32961;51.936;4.788;2023-04-08T12:19:39;102538.41;;;16.17;47.17
47220;BME280;32961;51.936;4.788;2023-04-08T12:22:07;102539.13;;;16.29;49.27
47220;BME280;32961;51.936;4.788;2023-04-08T12:24:35;102538.59;;;16.45;45.37
47220;BME280;32961;51.936;4.788;2023-04-08T12:27:05;102538.88;;;16.42;44.48
47220;BME280;32961;51.936;4.788;2023-04-08T12:29:33;102533.81;;;16.28;43.57
47220;BME280;32961;51.936;4.788;2023-04-08T12:32:01;102527.19;;;16.40;43.96
47220;BME280;32961;51.936;4.788;2023-04-08T12:34:30;102534.25;;;16.33;43.00
47220;BME280;32961;51.936;4.788;2023-04-08T12:36:58;102538.31;;;16.48;44.31
47220;BME280;32961;51.936;4.788;2023-04-08T12:39:26;102538.59;;;16.65;44.32
47220;BME280;32961;51.936;4.788;2023-04-08T12:41:53;102537.72;;;16.35;42.14
47220;BME280;32961;51.936;4.788;2023-04-08T12:44:23;102536.56;;;16.38;43.32
47220;BME280;32961;51.936;4.788;2023-04-08T12:46:51;102539.16;;;16.49;43.36
47220;BME280;32961;51.936;4.788;2023-04-08T12:49:20;102535.44;;;16.50;43.47
47220;BME280;32961;51.936;4.788;2023-04-08T12:51:48;102536.00;;;16.53;42.33
47220;BME280;32961;51.936;4.788;2023-04-08T12:54:16;102538.34;;;16.68;40.41
47220;BME280;32961;51.936;4.788;2023-04-08T12:56:44;102536.44;;;16.88;40.60
47220;BME280;32961;51.936;4.788;2023-04-08T12:59:14;102538.66;;;16.94;38.64
47220;BME280;32961;51.936;4.788;2023-04-08T13:01:43;102527.38;;;16.97;39.60
47220;BME280;32961;51.936;4.788;2023-04-08T13:04:11;102527.50;;;16.86;40.23
47220;BME280;32961;51.936;4.788;2023-04-08T13:06:39;102531.53;;;16.72;40.63